createdAt,value
2022-10-17T00:01:48.120Z,3.30
2022-10-17T00:04:15.372Z,2.92
2022-10-17T00:06:42.731Z,3.03
2022-10-17T00:09:10.004Z,2.83
2022-10-17T00:11:37.270Z,3.15
2022-10-17T00:14:04.468Z,2.70
2022-10-17T00:16:33.891Z,3.10
2022-10-17T00:19:01.251Z,2.80
2022-10-17T00:21:28.551Z,3.10
2022-10-17T00:23:56.163Z,3.35
2022-10-17T00:26:23.500Z,2.78
2022-10-17T00:28:51.361Z,3.10
2022-10-17T00:31:20.301Z,3.70
2022-10-17T00:33:47.639Z,2.92
2022-10-17T00:36:34.918Z,3.00
2022-10-17T00:39:02.611Z,2.63
2022-10-17T00:41:31.423Z,2.92
2022-10-17T00:43:58.643Z,3.42
2022-10-17T00:46:27.787Z,3.10
2022-10-17T00:48:55.930Z,2.67
2022-10-17T00:51:32.867Z,2.40
2022-10-17T00:54:00.637Z,2.70
2022-10-17T00:56:28.327Z,3.03
2022-10-17T00:58:55.778Z,2.80
2022-10-17T01:01:23.109Z,3.20
2022-10-17T01:03:53.302Z,2.58
2022-10-17T01:06:20.551Z,2.50
2022-10-17T01:08:47.835Z,2.70
2022-10-17T01:11:15.129Z,2.60
2022-10-17T01:13:49.335Z,2.47
2022-10-17T01:16:23.332Z,2.30
2022-10-17T01:19:08.536Z,2.53
2022-10-17T01:21:45.315Z,2.10
2022-10-17T01:24:13.501Z,2.45
2022-10-17T01:26:59.576Z,2.20
2022-10-17T01:29:30.537Z,2.20
2022-10-17T01:32:00.894Z,2.43
2022-10-17T01:34:40.930Z,2.13
2022-10-17T01:37:28.435Z,2.38
2022-10-17T01:39:56.239Z,2.20
2022-10-17T01:42:30.204Z,2.20
2022-10-17T01:45:03.748Z,1.90
2022-10-17T01:47:31.965Z,2.78
2022-10-17T01:50:27.996Z,2.50
2022-10-17T01:53:16.924Z,2.20
2022-10-17T01:55:46.346Z,2.17
2022-10-17T01:58:25.697Z,2.25
2022-10-17T02:00:54.205Z,1.73
2022-10-17T02:03:21.909Z,2.45
2022-10-17T02:05:49.478Z,2.03
2022-10-17T02:08:25.766Z,2.30
2022-10-17T02:10:58.986Z,2.05
2022-10-17T02:13:30.568Z,2.50
2022-10-17T02:16:14.049Z,2.70
2022-10-17T02:18:59.454Z,2.15
2022-10-17T02:21:43.765Z,2.58
2022-10-17T02:24:29.535Z,2.17
2022-10-17T02:27:17.060Z,2.58
2022-10-17T02:29:49.376Z,2.30
2022-10-17T02:32:27.426Z,2.50
2022-10-17T02:34:56.993Z,2.75
2022-10-17T02:37:28.269Z,2.88
2022-10-17T02:39:57.516Z,2.57
2022-10-17T02:42:25.207Z,2.70
2022-10-17T02:44:53.279Z,2.65
2022-10-17T02:47:28.131Z,2.80
2022-10-17T02:49:56.549Z,2.60
2022-10-17T02:52:33.182Z,2.35
2022-10-17T02:55:10.934Z,2.72
2022-10-17T02:57:43.047Z,2.40
2022-10-17T03:00:11.669Z,2.50
2022-10-17T03:02:40.031Z,2.70
2022-10-17T03:05:08.900Z,2.70
2022-10-17T03:07:38.310Z,2.67
2022-10-17T03:10:06.029Z,2.10
2022-10-17T03:12:33.223Z,2.63
2022-10-17T03:15:00.569Z,2.65
2022-10-17T03:17:28.059Z,2.80
2022-10-17T03:19:55.311Z,2.65
2022-10-17T03:22:22.547Z,2.60
2022-10-17T03:24:57.166Z,2.35
2022-10-17T03:27:24.588Z,2.47
2022-10-17T03:29:51.821Z,2.50
2022-10-17T03:32:19.159Z,2.40
2022-10-17T03:34:46.522Z,2.60
2022-10-17T03:37:13.959Z,2.75
2022-10-17T03:39:42.376Z,2.33
2022-10-17T03:42:09.647Z,2.55
2022-10-17T03:44:37.041Z,2.42
2022-10-17T03:47:04.961Z,2.42
2022-10-17T03:49:32.376Z,2.60
2022-10-17T03:51:59.558Z,2.50
2022-10-17T03:54:28.472Z,2.40
2022-10-17T03:59:28.081Z,2.97
2022-10-17T04:02:02.623Z,3.15
2022-10-17T04:04:29.983Z,2.67
2022-10-17T04:06:58.027Z,2.17
2022-10-17T04:09:25.926Z,3.05
2022-10-17T04:12:02.097Z,3.00
2022-10-17T04:14:31.331Z,2.55
2022-10-17T04:16:58.927Z,2.72
2022-10-17T04:19:27.396Z,2.90
2022-10-17T04:21:55.008Z,3.35
2022-10-17T04:24:22.613Z,2.97
2022-10-17T04:27:20.067Z,3.42
2022-10-17T04:29:47.943Z,2.22
2022-10-17T04:32:18.534Z,2.50
2022-10-17T04:34:50.247Z,2.83
2022-10-17T04:37:19.648Z,2.65
2022-10-17T04:39:48.793Z,2.92
2022-10-17T04:42:16.008Z,1.95
2022-10-17T04:44:43.548Z,2.95
2022-10-17T04:47:11.028Z,2.70
2022-10-17T04:49:39.413Z,2.83
2022-10-17T04:52:10.178Z,3.10
2022-10-17T04:54:40.397Z,2.90
2022-10-17T04:57:10.336Z,2.70
2022-10-17T04:59:39.437Z,2.70
2022-10-17T05:02:22.316Z,2.28
2022-10-17T05:04:49.667Z,3.03
2022-10-17T05:07:16.969Z,2.47
2022-10-17T05:09:53.799Z,3.00
2022-10-17T05:12:22.168Z,2.80
2022-10-17T05:14:49.403Z,2.67
2022-10-17T05:17:17.095Z,2.75
2022-10-17T05:19:45.145Z,2.65
2022-10-17T05:22:12.418Z,2.63
2022-10-17T05:24:41.572Z,2.90
2022-10-17T05:27:09.854Z,4.75
2022-10-17T05:29:37.089Z,2.50
2022-10-17T05:32:11.623Z,2.40
2022-10-17T05:34:38.985Z,3.03
2022-10-17T05:37:06.463Z,2.67
2022-10-17T05:39:34.475Z,2.60
2022-10-17T05:42:01.799Z,2.50
2022-10-17T05:44:29.206Z,2.47
2022-10-17T05:46:59.886Z,2.42
2022-10-17T05:49:44.987Z,1.60
2022-10-17T05:52:15.727Z,2.38
2022-10-17T05:55:06.615Z,2.55
2022-10-17T05:57:34.375Z,2.47
2022-10-17T06:00:03.987Z,2.60
2022-10-17T06:05:15.457Z,2.50
2022-10-17T06:07:43.376Z,2.67
2022-10-17T06:10:12.904Z,3.42
2022-10-17T06:12:40.248Z,3.10
2022-10-17T06:15:07.771Z,2.80
2022-10-17T06:17:35.802Z,2.53
2022-10-17T06:20:03.018Z,3.53
2022-10-17T06:22:30.629Z,2.53
2022-10-17T06:24:58.174Z,3.28
2022-10-17T06:27:25.506Z,3.38
2022-10-17T06:29:52.679Z,3.65
2022-10-17T06:32:19.887Z,4.13
2022-10-17T06:34:47.897Z,3.42
2022-10-17T06:37:15.801Z,5.85
2022-10-17T06:39:44.070Z,3.65
2022-10-17T06:42:13.744Z,3.08
2022-10-17T06:45:10.655Z,2.97
2022-10-17T06:47:42.577Z,2.70
2022-10-17T06:50:27.304Z,2.38
2022-10-17T06:53:05.499Z,2.80
2022-10-17T06:55:55.383Z,2.60
2022-10-17T06:58:41.978Z,2.70
2022-10-17T07:01:31.229Z,2.75
2022-10-17T07:04:00.436Z,2.17
2022-10-17T07:06:29.079Z,2.60
2022-10-17T07:09:00.935Z,2.60
2022-10-17T07:11:28.173Z,2.67
2022-10-17T07:13:55.381Z,2.70
2022-10-17T07:16:22.885Z,2.97
2022-10-17T07:19:00.708Z,2.80
2022-10-17T07:21:36.650Z,2.60
2022-10-17T07:24:07.436Z,2.67
2022-10-17T07:26:34.970Z,2.40
2022-10-17T07:29:02.517Z,2.60
2022-10-17T07:31:45.595Z,2.40
2022-10-17T07:34:12.925Z,2.22
2022-10-17T07:36:40.174Z,2.30
2022-10-17T07:39:08.381Z,2.47
2022-10-17T07:41:37.663Z,2.15
2022-10-17T07:44:05.657Z,2.25
2022-10-17T07:46:37.456Z,1.85
2022-10-17T07:49:06.024Z,2.20
2022-10-17T07:51:34.100Z,2.00
2022-10-17T07:54:01.400Z,2.28
2022-10-17T07:56:29.571Z,2.25
2022-10-17T08:01:29.719Z,2.45
2022-10-17T08:03:56.898Z,2.65
2022-10-17T08:06:24.108Z,3.08
2022-10-17T08:08:51.315Z,2.85
2022-10-17T08:11:18.672Z,3.20
2022-10-17T08:13:45.842Z,3.60
2022-10-17T08:16:13.808Z,3.60
2022-10-17T08:18:41.691Z,3.60
2022-10-17T08:21:09.772Z,3.10
2022-10-17T08:23:37.440Z,3.30
2022-10-17T08:26:06.173Z,3.80
2022-10-17T08:28:35.342Z,4.20
2022-10-17T08:31:03.912Z,3.72
2022-10-17T08:33:32.130Z,3.55
2022-10-17T08:36:01.402Z,4.18
2022-10-17T08:38:35.094Z,4.55
2022-10-17T08:41:26.007Z,4.80
2022-10-17T08:44:04.825Z,4.30
2022-10-17T08:46:35.416Z,4.70
2022-10-17T08:49:07.573Z,5.10
2022-10-17T08:51:37.912Z,4.70
2022-10-17T08:54:13.408Z,5.00
2022-10-17T08:56:48.598Z,5.88
2022-10-17T08:59:43.313Z,6.25
2022-10-17T09:02:35.747Z,5.30
2022-10-17T09:05:15.306Z,6.45
2022-10-17T09:08:01.476Z,6.20
2022-10-17T09:10:33.763Z,7.82
2022-10-17T09:13:16.345Z,8.48
2022-10-17T09:15:43.623Z,10.65
2022-10-17T09:18:10.763Z,10.40
2022-10-17T09:20:40.524Z,12.18
2022-10-17T09:23:13.005Z,13.10
2022-10-17T09:25:43.040Z,12.60
2022-10-17T09:28:10.322Z,11.93
2022-10-17T09:30:45.213Z,12.60
2022-10-17T09:33:35.353Z,13.20
2022-10-17T09:36:15.081Z,12.80
2022-10-17T09:38:48.191Z,12.95
2022-10-17T09:41:44.820Z,11.95
2022-10-17T09:44:25.659Z,14.00
2022-10-17T09:46:58.180Z,15.35
2022-10-17T09:49:36.646Z,14.10
2022-10-17T09:52:05.328Z,14.05
2022-10-17T09:54:52.781Z,14.98
2022-10-17T09:57:21.731Z,15.25
2022-10-17T10:00:02.603Z,16.17
2022-10-17T10:02:32.559Z,14.43
2022-10-17T10:05:04.186Z,16.38
2022-10-17T10:07:34.207Z,15.38
2022-10-17T10:10:02.952Z,15.70
2022-10-17T10:12:32.411Z,15.55
2022-10-17T10:15:00.120Z,16.08
2022-10-17T10:17:35.132Z,16.73
2022-10-17T10:20:02.879Z,15.93
2022-10-17T10:22:30.387Z,16.55
2022-10-17T10:25:27.916Z,15.80
2022-10-17T10:27:56.372Z,15.90
2022-10-17T10:30:29.363Z,15.27
2022-10-17T10:32:57.728Z,15.85
2022-10-17T10:35:29.863Z,15.82
2022-10-17T10:37:58.257Z,16.38
2022-10-17T10:40:44.559Z,16.50
2022-10-17T10:43:21.063Z,16.67
2022-10-17T10:45:49.098Z,16.70
2022-10-17T10:48:20.435Z,17.27
2022-10-17T10:50:50.345Z,16.58
2022-10-17T10:53:36.373Z,17.85
2022-10-17T10:56:22.216Z,18.08
2022-10-17T10:58:49.482Z,17.35
2022-10-17T11:01:21.068Z,17.27
2022-10-17T11:04:02.492Z,17.58
2022-10-17T11:06:32.180Z,18.13
2022-10-17T11:09:02.262Z,18.38
2022-10-17T11:11:39.215Z,17.67
2022-10-17T11:14:32.769Z,18.02
2022-10-17T11:17:06.609Z,15.45
2022-10-17T11:19:43.981Z,16.58
2022-10-17T11:22:20.278Z,16.45
2022-10-17T11:25:17.735Z,16.83
2022-10-17T11:27:46.211Z,16.60
2022-10-17T11:30:14.673Z,16.52
2022-10-17T11:32:46.911Z,16.17
2022-10-17T11:35:23.450Z,17.23
2022-10-17T11:38:08.757Z,16.45
2022-10-17T11:40:37.089Z,15.57
2022-10-17T11:43:11.636Z,16.15
2022-10-17T11:45:43.900Z,15.50
2022-10-17T11:48:18.582Z,15.45
2022-10-17T11:53:43.959Z,15.68
2022-10-17T11:56:12.164Z,15.52
2022-10-17T11:58:48.617Z,15.20
2022-10-17T12:01:31.277Z,15.98
2022-10-17T12:03:58.573Z,15.45
2022-10-17T12:06:49.527Z,16.30
2022-10-17T12:09:21.154Z,14.90
2022-10-17T12:11:54.679Z,16.25
2022-10-17T12:14:41.669Z,15.75
2022-10-17T12:17:24.302Z,15.10
2022-10-17T12:19:51.657Z,15.77
2022-10-17T12:22:20.238Z,16.10
2022-10-17T12:24:58.279Z,15.48
2022-10-17T12:27:39.639Z,15.38
2022-10-17T12:30:16.695Z,15.68
2022-10-17T12:33:05.753Z,14.70
2022-10-17T12:35:38.085Z,14.77
2022-10-17T12:38:23.385Z,15.30
2022-10-17T12:40:52.213Z,15.32
2022-10-17T12:43:28.372Z,15.73
2022-10-17T12:45:56.877Z,13.52
2022-10-17T12:48:42.070Z,14.65
2022-10-17T12:51:36.306Z,15.55
2022-10-17T12:54:15.657Z,15.82
2022-10-17T12:56:47.399Z,15.52
2022-10-17T12:59:23.005Z,15.23
2022-10-17T13:01:52.185Z,14.77
2022-10-17T13:04:19.961Z,17.98
2022-10-17T13:06:48.346Z,15.82
2022-10-17T13:09:36.318Z,14.45
2022-10-17T13:12:05.352Z,14.65
2022-10-17T13:14:33.887Z,15.93
2022-10-17T13:17:02.854Z,15.70
2022-10-17T13:19:41.905Z,15.93
2022-10-17T13:22:29.203Z,16.88
2022-10-17T13:25:07.855Z,16.83
2022-10-17T13:27:36.076Z,15.45
2022-10-17T13:30:21.629Z,16.15
2022-10-17T13:32:50.639Z,16.95
2022-10-17T13:35:42.031Z,15.40
2022-10-17T13:38:13.304Z,14.05
2022-10-17T13:40:49.739Z,16.42
2022-10-17T13:43:20.226Z,16.50
2022-10-17T13:45:49.526Z,14.93
2022-10-17T13:48:19.468Z,15.90
2022-10-17T13:50:50.080Z,17.48
2022-10-17T13:53:19.396Z,17.42
2022-10-17T13:56:22.974Z,17.75
2022-10-17T13:58:49.840Z,18.23
2022-10-17T14:01:17.600Z,20.02
2022-10-17T14:03:49.033Z,18.70
2022-10-17T14:06:21.746Z,16.95
2022-10-17T14:08:48.944Z,15.95
2022-10-17T14:11:21.022Z,16.45
2022-10-17T14:13:51.841Z,16.65
2022-10-17T14:16:19.914Z,17.03
2022-10-17T14:18:49.259Z,25.67
2022-10-17T14:21:44.290Z,21.08
2022-10-17T14:24:14.212Z,19.13
2022-10-17T14:26:49.265Z,16.90
2022-10-17T14:29:22.688Z,17.10
2022-10-17T14:31:53.485Z,18.48
2022-10-17T14:34:22.638Z,19.47
2022-10-17T14:36:51.921Z,17.58
2022-10-17T14:39:21.477Z,18.40
2022-10-17T14:41:49.170Z,18.98
2022-10-17T14:44:30.625Z,18.80
2022-10-17T14:47:13.434Z,20.13
2022-10-17T14:49:50.659Z,18.42
2022-10-17T14:52:18.804Z,19.17
2022-10-17T14:54:47.803Z,18.88
2022-10-17T14:57:26.286Z,19.73
2022-10-17T14:59:55.381Z,19.90
2022-10-17T15:02:27.414Z,18.88
2022-10-17T15:04:55.005Z,20.23
2022-10-17T15:07:23.657Z,21.27
2022-10-17T15:09:51.603Z,22.05
2022-10-17T15:12:21.852Z,21.90
2022-10-17T15:14:49.420Z,23.05
2022-10-17T15:17:20.500Z,22.73
2022-10-17T15:19:48.431Z,22.55
2022-10-17T15:22:16.132Z,21.90
2022-10-17T15:24:43.499Z,20.10
2022-10-17T15:27:21.802Z,20.30
2022-10-17T15:29:49.408Z,20.40
2022-10-17T15:32:16.680Z,20.23
2022-10-17T15:34:43.957Z,22.45
2022-10-17T15:37:24.458Z,22.52
2022-10-17T15:39:54.099Z,22.35
2022-10-17T15:42:22.645Z,22.65
2022-10-17T15:44:50.191Z,23.48
2022-10-17T15:47:24.643Z,24.42
2022-10-17T15:49:52.449Z,27.20
2022-10-17T15:52:19.675Z,26.98
2022-10-17T15:54:47.006Z,25.77
2022-10-17T15:57:24.847Z,25.80
2022-10-17T15:59:53.184Z,23.55
2022-10-17T16:02:23.754Z,22.83
2022-10-17T16:04:54.079Z,22.10
2022-10-17T16:07:21.741Z,21.15
2022-10-17T16:09:49.028Z,22.55
2022-10-17T16:12:18.018Z,21.30
2022-10-17T16:14:45.657Z,21.63
2022-10-17T16:17:16.895Z,22.92
2022-10-17T16:19:45.111Z,21.48
2022-10-17T16:22:23.720Z,24.83
2022-10-17T16:24:58.121Z,22.40
2022-10-17T16:27:25.623Z,23.63
2022-10-17T16:29:52.832Z,23.02
2022-10-17T16:32:20.108Z,23.98
2022-10-17T16:34:47.316Z,21.85
2022-10-17T16:37:14.493Z,23.70
2022-10-17T16:39:42.544Z,22.80
2022-10-17T16:42:09.767Z,22.30
2022-10-17T16:44:36.970Z,21.40
2022-10-17T16:47:04.243Z,20.63
2022-10-17T16:49:33.752Z,21.75
2022-10-17T16:52:02.199Z,23.92
2022-10-17T16:54:29.626Z,25.48
2022-10-17T16:57:00.184Z,25.58
2022-10-17T16:59:28.076Z,28.50
2022-10-17T17:01:55.342Z,27.10
2022-10-17T17:04:22.635Z,26.20
2022-10-17T17:06:49.898Z,24.95
2022-10-17T17:09:17.279Z,23.65
2022-10-17T17:11:44.555Z,23.85
2022-10-17T17:14:12.647Z,23.20
2022-10-17T17:16:39.838Z,20.50
2022-10-17T17:19:12.704Z,21.42
2022-10-17T17:21:39.954Z,21.80
2022-10-17T17:24:07.183Z,20.67
2022-10-17T17:26:38.929Z,22.85
2022-10-17T17:29:06.188Z,22.48
2022-10-17T17:31:34.646Z,19.35
2022-10-17T17:34:03.513Z,22.58
2022-10-17T17:36:32.710Z,21.88
2022-10-17T17:39:21.697Z,22.67
2022-10-17T17:42:36.593Z,21.70
2022-10-17T17:45:04.430Z,21.08
2022-10-17T17:47:32.026Z,22.27
2022-10-17T17:49:59.447Z,22.75
2022-10-17T17:52:26.860Z,21.23
2022-10-17T17:54:54.384Z,19.67
2022-10-17T17:57:21.649Z,21.02
2022-10-17T17:59:49.761Z,19.50
2022-10-17T18:02:17.073Z,20.98
2022-10-17T18:04:44.351Z,19.75
2022-10-17T18:07:11.539Z,19.80
2022-10-17T18:09:38.800Z,19.90
2022-10-17T18:12:06.154Z,15.70
2022-10-17T18:14:33.347Z,17.63
2022-10-17T18:17:00.535Z,19.65
2022-10-17T18:19:28.208Z,20.05
2022-10-17T18:21:55.432Z,25.88
2022-10-17T18:24:22.708Z,24.75
2022-10-17T18:26:50.990Z,21.42
2022-10-17T18:29:18.248Z,19.13
2022-10-17T18:31:45.515Z,22.52
2022-10-17T18:34:12.785Z,20.98
2022-10-17T18:36:40.044Z,21.02
2022-10-17T18:39:07.306Z,23.17
2022-10-17T18:41:34.987Z,26.80
2022-10-17T18:44:05.326Z,28.08
2022-10-17T18:46:36.175Z,30.23
2022-10-17T18:49:03.739Z,23.83
2022-10-17T18:51:30.996Z,27.13
2022-10-17T18:53:59.408Z,23.92
2022-10-17T18:56:26.869Z,25.23
2022-10-17T18:59:03.530Z,28.05
2022-10-17T19:01:30.791Z,28.23
2022-10-17T19:03:59.089Z,27.52
2022-10-17T19:06:27.702Z,24.58
2022-10-17T19:08:55.180Z,25.83
2022-10-17T19:11:23.728Z,24.73
2022-10-17T19:13:51.249Z,22.13
2022-10-17T19:16:19.924Z,23.50
2022-10-17T19:18:54.320Z,23.65
2022-10-17T19:21:22.367Z,23.33
2022-10-17T19:23:51.200Z,23.00
2022-10-17T19:26:18.493Z,26.67
2022-10-17T19:28:45.875Z,26.63
2022-10-17T19:31:16.892Z,25.20
2022-10-17T19:33:45.384Z,23.88
2022-10-17T19:36:12.992Z,22.50
2022-10-17T19:38:40.518Z,23.45
2022-10-17T19:41:08.731Z,26.85
2022-10-17T19:43:37.308Z,29.85
2022-10-17T19:46:05.438Z,29.40
2022-10-17T19:48:33.738Z,33.10
2022-10-17T19:51:01.348Z,38.00
2022-10-17T19:53:29.334Z,38.10
2022-10-17T19:55:57.558Z,32.60
2022-10-17T21:06:57.493Z,19.20
2022-10-17T21:09:25.031Z,19.48
2022-10-17T21:11:55.131Z,17.48
2022-10-17T21:14:23.429Z,16.85
2022-10-17T21:16:52.256Z,16.15
2022-10-17T21:19:21.787Z,15.88
2022-10-17T21:21:49.067Z,15.40
2022-10-17T21:24:18.001Z,16.40
2022-10-17T21:26:46.207Z,15.15
2022-10-17T21:29:13.908Z,14.43
2022-10-17T21:31:42.636Z,14.38
2022-10-17T21:34:11.040Z,13.23
2022-10-17T21:36:38.987Z,15.88
2022-10-17T21:39:09.200Z,13.07
2022-10-17T21:41:36.429Z,14.40
2022-10-17T21:44:07.983Z,14.27
2022-10-17T21:46:35.619Z,14.82
2022-10-17T21:49:02.868Z,15.18
2022-10-17T21:51:30.318Z,14.90
2022-10-17T21:53:58.149Z,14.93
2022-10-17T21:56:30.583Z,14.82
2022-10-17T21:58:58.249Z,14.70
2022-10-17T22:01:28.808Z,13.13
2022-10-17T22:03:57.541Z,15.48
2022-10-17T22:06:39.637Z,14.80
2022-10-17T22:09:08.165Z,14.95
2022-10-17T22:11:35.995Z,15.60
2022-10-17T22:14:04.968Z,14.65
2022-10-17T22:16:32.752Z,16.27
2022-10-17T22:19:04.851Z,15.60
2022-10-17T22:21:34.098Z,14.77
2022-10-17T22:24:02.663Z,15.50
2022-10-17T22:26:31.079Z,15.30
2022-10-17T22:28:58.616Z,15.05
2022-10-17T22:31:25.943Z,15.98
2022-10-17T22:33:53.183Z,12.73
2022-10-17T22:36:20.685Z,14.45
2022-10-17T22:38:47.859Z,14.75
2022-10-17T22:41:15.092Z,14.90
2022-10-17T22:43:42.316Z,14.50
2022-10-17T22:46:12.808Z,15.02
2022-10-17T22:48:40.366Z,14.50
2022-10-17T22:51:07.800Z,13.52
2022-10-17T22:53:35.891Z,13.45
2022-10-17T22:56:04.887Z,14.30
2022-10-17T22:58:33.880Z,13.32
2022-10-17T23:01:01.400Z,12.35
2022-10-17T23:03:29.666Z,12.88
2022-10-17T23:05:58.493Z,12.52
2022-10-17T23:08:26.231Z,12.63
2022-10-17T23:10:53.511Z,12.20
2022-10-17T23:13:21.834Z,11.82
2022-10-17T23:15:53.037Z,11.98
2022-10-17T23:18:20.672Z,11.57
2022-10-17T23:20:47.956Z,11.75
2022-10-17T23:23:15.323Z,12.02
2022-10-17T23:25:42.785Z,11.52
2022-10-17T23:28:10.333Z,11.85
2022-10-17T23:30:37.947Z,11.38
2022-10-17T23:33:05.506Z,12.50
2022-10-17T23:35:33.134Z,12.20
2022-10-17T23:38:00.358Z,12.00
2022-10-17T23:40:28.080Z,12.05
2022-10-17T23:42:55.346Z,11.43
2022-10-17T23:45:22.840Z,11.75
2022-10-17T23:47:50.069Z,12.10
2022-10-17T23:50:17.385Z,12.30
2022-10-17T23:52:44.594Z,12.05
2022-10-17T23:55:11.839Z,10.68
2022-10-17T23:57:39.321Z,11.48
